createdAt,value
2023-05-19T00:02:27.190Z,53.40
2023-05-19T00:04:55.298Z,52.40
2023-05-19T00:07:26.365Z,51.30
2023-05-19T00:09:54.610Z,50.60
2023-05-19T00:12:22.709Z,49.30
2023-05-19T00:14:51.105Z,49.60
2023-05-19T00:17:19.251Z,56.00
2023-05-19T00:19:47.230Z,58.80
2023-05-19T00:22:15.498Z,60.50
2023-05-19T00:24:43.419Z,57.90
2023-05-19T00:29:04.645Z,52.00
2023-05-19T00:31:32.985Z,57.20
2023-05-19T00:34:02.425Z,60.50
2023-05-19T00:36:30.998Z,60.70
2023-05-19T00:38:59.459Z,55.10
2023-05-19T00:41:27.929Z,53.10
2023-05-19T00:43:56.595Z,51.90
2023-05-19T00:46:26.485Z,50.80
2023-05-19T00:48:54.915Z,55.60
2023-05-19T00:51:31.421Z,59.30
2023-05-19T00:54:00.329Z,61.20
2023-05-19T00:56:28.568Z,59.20
2023-05-19T00:58:57.870Z,54.80
2023-05-19T01:01:26.951Z,53.30
2023-05-19T01:03:55.663Z,51.80
2023-05-19T01:06:23.805Z,50.80
2023-05-19T01:08:52.359Z,51.30
2023-05-19T01:11:20.481Z,57.30
2023-05-19T01:13:48.812Z,60.70
2023-05-19T01:16:49.066Z,61.70
2023-05-19T01:19:35.460Z,56.70
2023-05-19T01:22:13.681Z,53.90
2023-05-19T01:24:45.477Z,52.10
2023-05-19T01:27:24.226Z,55.30
2023-05-19T01:30:24.520Z,59.60
2023-05-19T01:32:57.847Z,62.20
2023-05-19T01:35:27.824Z,62.30
2023-05-19T01:38:01.100Z,56.90
2023-05-19T01:40:31.743Z,54.40
2023-05-19T01:43:02.051Z,53.00
2023-05-19T01:45:33.032Z,56.30
2023-05-19T01:48:04.014Z,60.40
2023-05-19T01:50:34.404Z,62.70
2023-05-19T01:53:03.190Z,64.20
2023-05-19T01:55:31.458Z,58.10
2023-05-19T01:58:26.542Z,55.50
2023-05-19T02:00:59.098Z,53.80
2023-05-19T02:03:42.724Z,57.80
2023-05-19T02:06:26.694Z,61.80
2023-05-19T02:09:13.899Z,64.20
2023-05-19T02:12:21.020Z,63.40
2023-05-19T02:15:04.015Z,58.40
2023-05-19T02:17:38.609Z,56.30
2023-05-19T02:20:08.300Z,55.00
2023-05-19T02:22:37.315Z,59.80
2023-05-19T02:25:05.868Z,62.90
2023-05-19T02:27:34.754Z,65.10
2023-05-19T02:30:05.296Z,65.10
2023-05-19T02:32:34.365Z,59.20
2023-05-19T02:35:04.152Z,56.30
2023-05-19T02:37:32.691Z,55.80
2023-05-19T02:40:03.141Z,54.60
2023-05-19T02:42:32.475Z,60.60
2023-05-19T02:45:01.317Z,63.30
2023-05-19T02:47:30.121Z,65.30
2023-05-19T02:49:58.698Z,66.20
2023-05-19T02:52:27.182Z,59.30
2023-05-19T02:54:55.529Z,56.80
2023-05-19T02:57:23.855Z,55.40
2023-05-19T02:59:52.372Z,54.80
2023-05-19T03:02:20.701Z,60.60
2023-05-19T03:04:54.403Z,63.10
2023-05-19T03:07:22.828Z,64.90
2023-05-19T03:09:53.545Z,60.40
2023-05-19T03:12:22.487Z,57.90
2023-05-19T03:14:50.612Z,56.20
2023-05-19T03:17:18.881Z,57.90
2023-05-19T03:19:47.753Z,62.40
2023-05-19T03:22:17.530Z,64.70
2023-05-19T03:24:48.260Z,67.10
2023-05-19T03:27:17.126Z,62.10
2023-05-19T03:29:45.048Z,58.40
2023-05-19T03:32:20.130Z,56.10
2023-05-19T03:34:48.992Z,55.50
2023-05-19T03:37:17.357Z,61.50
2023-05-19T03:39:46.390Z,64.30
2023-05-19T03:42:16.470Z,66.00
2023-05-19T03:44:45.777Z,67.30
2023-05-19T03:47:16.057Z,60.10
2023-05-19T03:50:05.923Z,57.30
2023-05-19T03:52:49.654Z,55.10
2023-05-19T03:55:29.516Z,61.40
2023-05-19T03:57:59.223Z,63.80
2023-05-19T04:00:27.484Z,65.60
2023-05-19T04:02:56.076Z,64.40
2023-05-19T04:05:24.688Z,58.50
2023-05-19T04:07:55.145Z,56.00
2023-05-19T04:10:25.048Z,56.90
2023-05-19T04:12:55.904Z,62.20
2023-05-19T04:15:24.142Z,64.00
2023-05-19T04:17:52.885Z,66.50
2023-05-19T04:20:28.996Z,66.60
2023-05-19T04:22:57.771Z,59.60
2023-05-19T04:25:26.177Z,57.00
2023-05-19T04:27:54.961Z,55.60
2023-05-19T04:30:24.827Z,61.00
2023-05-19T04:32:53.960Z,63.80
2023-05-19T04:35:26.759Z,65.80
2023-05-19T04:37:56.773Z,66.70
2023-05-19T04:40:30.874Z,60.20
2023-05-19T04:42:59.376Z,57.10
2023-05-19T04:45:28.274Z,55.40
2023-05-19T04:48:00.663Z,60.70
2023-05-19T04:50:29.406Z,64.00
2023-05-19T04:52:58.778Z,65.90
2023-05-19T04:55:27.615Z,66.90
2023-05-19T04:57:59.507Z,61.80
2023-05-19T05:00:29.073Z,58.00
2023-05-19T05:03:01.080Z,55.90
2023-05-19T05:05:40.401Z,59.60
2023-05-19T05:08:11.570Z,63.50
2023-05-19T05:10:43.880Z,66.10
2023-05-19T05:13:12.845Z,67.80
2023-05-19T05:15:41.739Z,64.20
2023-05-19T05:18:13.838Z,59.30
2023-05-19T05:20:46.630Z,56.70
2023-05-19T05:23:16.924Z,61.60
2023-05-19T05:25:48.415Z,64.70
2023-05-19T05:28:18.131Z,66.20
2023-05-19T05:30:48.156Z,67.80
2023-05-19T05:33:17.222Z,66.20
2023-05-19T05:35:46.324Z,60.20
2023-05-19T05:38:16.365Z,57.40
2023-05-19T05:40:45.422Z,61.30
2023-05-19T05:43:13.669Z,64.30
2023-05-19T05:45:48.262Z,66.00
2023-05-19T05:48:16.568Z,68.20
2023-05-19T05:50:45.890Z,66.20
2023-05-19T05:53:21.724Z,60.60
2023-05-19T05:55:53.701Z,57.60
2023-05-19T05:58:25.470Z,61.40
2023-05-19T06:00:53.742Z,64.60
2023-05-19T06:03:22.502Z,66.90
2023-05-19T06:05:54.019Z,68.20
2023-05-19T06:08:28.438Z,69.30
2023-05-19T06:10:56.923Z,63.00
2023-05-19T06:13:25.663Z,59.20
2023-05-19T06:15:54.074Z,57.00
2023-05-19T06:18:32.404Z,62.30
2023-05-19T06:21:01.952Z,65.50
2023-05-19T06:23:31.764Z,67.30
2023-05-19T06:26:01.868Z,69.30
2023-05-19T06:28:31.453Z,65.30
2023-05-19T06:31:00.187Z,60.10
2023-05-19T06:33:40.970Z,57.50
2023-05-19T06:36:09.578Z,61.50
2023-05-19T06:38:40.127Z,64.90
2023-05-19T06:41:08.550Z,66.90
2023-05-19T06:43:46.359Z,68.50
2023-05-19T06:46:15.841Z,69.90
2023-05-19T06:48:44.644Z,64.70
2023-05-19T06:51:12.939Z,60.20
2023-05-19T06:53:51.773Z,57.40
2023-05-19T06:56:20.216Z,61.90
2023-05-19T06:58:48.509Z,65.60
2023-05-19T07:01:17.873Z,67.40
2023-05-19T07:03:59.319Z,69.20
2023-05-19T07:06:29.190Z,66.00
2023-05-19T07:08:57.757Z,60.40
2023-05-19T07:11:26.702Z,58.00
2023-05-19T07:13:54.912Z,61.20
2023-05-19T07:16:28.218Z,64.90
2023-05-19T07:18:57.093Z,67.00
2023-05-19T07:21:25.830Z,69.20
2023-05-19T07:23:53.956Z,69.70
2023-05-19T07:26:22.219Z,62.90
2023-05-19T07:28:51.754Z,60.20
2023-05-19T07:31:20.098Z,59.00
2023-05-19T07:33:48.244Z,63.10
2023-05-19T07:36:16.703Z,66.40
2023-05-19T07:38:45.969Z,68.80
2023-05-19T07:41:16.304Z,70.20
2023-05-19T07:43:51.473Z,64.50
2023-05-19T07:46:21.220Z,60.30
2023-05-19T07:49:09.786Z,59.80
2023-05-19T07:51:38.562Z,64.60
2023-05-19T07:54:09.072Z,67.80
2023-05-19T07:56:37.714Z,69.60
2023-05-19T07:59:06.614Z,71.50
2023-05-19T08:01:42.316Z,64.90
2023-05-19T08:04:13.604Z,61.00
2023-05-19T08:06:45.667Z,59.30
2023-05-19T08:09:22.000Z,62.80
2023-05-19T08:11:50.726Z,72.00
2023-05-19T08:14:19.494Z,71.90
2023-05-19T08:16:48.081Z,69.00
2023-05-19T08:19:16.556Z,68.20
2023-05-19T08:21:46.790Z,67.70
2023-05-19T08:24:15.211Z,66.90
2023-05-19T08:26:45.181Z,67.20
2023-05-19T08:29:14.803Z,67.00
2023-05-19T08:32:06.285Z,66.30
2023-05-19T08:34:36.402Z,66.10
2023-05-19T08:37:04.794Z,66.40
2023-05-19T08:39:33.507Z,66.30
2023-05-19T08:42:08.530Z,65.70
2023-05-19T08:44:45.942Z,66.50
2023-05-19T08:47:15.813Z,65.50
2023-05-19T08:49:47.546Z,66.20
2023-05-19T08:52:42.036Z,67.20
2023-05-19T08:55:15.377Z,67.80
2023-05-19T08:57:47.419Z,66.60
2023-05-19T09:00:17.119Z,65.70
2023-05-19T09:02:55.161Z,64.50
2023-05-19T09:05:30.099Z,63.70
2023-05-19T09:07:58.414Z,62.40
2023-05-19T09:10:27.308Z,61.40
2023-05-19T09:12:57.684Z,60.60
2023-05-19T09:15:27.433Z,59.80
2023-05-19T09:18:12.764Z,59.70
2023-05-19T09:20:45.205Z,58.90
2023-05-19T09:23:17.839Z,58.00
2023-05-19T09:25:51.068Z,57.30
2023-05-19T09:28:29.687Z,56.70
2023-05-19T09:31:10.842Z,55.90
2023-05-19T09:33:42.186Z,55.50
2023-05-19T09:36:11.994Z,55.00
2023-05-19T09:38:40.519Z,59.20
2023-05-19T09:41:09.366Z,62.00
2023-05-19T09:43:37.724Z,64.10
2023-05-19T09:46:08.608Z,60.20
2023-05-19T09:48:38.880Z,57.80
2023-05-19T09:51:09.451Z,56.90
2023-05-19T09:53:40.072Z,56.50
2023-05-19T09:56:10.468Z,59.90
2023-05-19T09:58:42.149Z,63.40
2023-05-19T10:01:10.781Z,65.70
2023-05-19T10:03:39.424Z,64.70
2023-05-19T10:06:08.608Z,60.80
2023-05-19T10:08:38.208Z,58.90
2023-05-19T10:11:08.103Z,57.70
2023-05-19T10:13:37.389Z,57.10
2023-05-19T10:16:07.420Z,62.50
2023-05-19T10:18:39.605Z,65.30
2023-05-19T10:21:09.280Z,67.00
2023-05-19T10:23:38.322Z,65.80
2023-05-19T10:26:07.857Z,61.40
2023-05-19T10:28:40.601Z,59.40
2023-05-19T10:31:14.073Z,57.70
2023-05-19T10:34:10.857Z,56.80
2023-05-19T10:36:50.221Z,60.80
2023-05-19T10:39:28.981Z,63.80
2023-05-19T10:42:16.084Z,66.20
2023-05-19T10:45:19.149Z,61.40
2023-05-19T10:47:48.225Z,59.30
2023-05-19T10:50:16.776Z,57.90
2023-05-19T10:52:45.050Z,57.10
2023-05-19T10:55:15.740Z,56.20
2023-05-19T10:58:04.155Z,60.60
2023-05-19T11:00:32.786Z,63.50
2023-05-19T11:03:22.136Z,65.60
2023-05-19T11:05:52.553Z,61.70
2023-05-19T11:08:33.532Z,58.60
2023-05-19T11:11:17.703Z,57.00
2023-05-19T11:13:52.370Z,56.20
2023-05-19T11:16:32.500Z,59.70
2023-05-19T11:19:01.495Z,62.70
2023-05-19T11:21:48.911Z,65.20
2023-05-19T11:24:38.240Z,62.40
2023-05-19T11:27:35.271Z,58.90
2023-05-19T11:30:06.951Z,57.00
2023-05-19T11:32:36.785Z,56.10
2023-05-19T11:35:05.462Z,55.60
2023-05-19T11:37:34.355Z,60.80
2023-05-19T11:40:04.074Z,62.80
2023-05-19T11:42:33.178Z,65.00
2023-05-19T11:45:01.448Z,62.30
2023-05-19T11:47:41.992Z,59.20
2023-05-19T11:50:14.128Z,57.80
2023-05-19T11:52:46.779Z,56.80
2023-05-19T11:55:20.303Z,56.00
2023-05-19T11:58:05.970Z,59.20
2023-05-19T12:00:39.971Z,62.60
2023-05-19T12:03:11.193Z,64.60
2023-05-19T12:05:45.720Z,64.70
2023-05-19T12:08:14.939Z,60.70
2023-05-19T12:10:43.244Z,59.40
2023-05-19T12:13:11.560Z,58.50
2023-05-19T12:15:41.149Z,58.40
2023-05-19T12:18:12.389Z,58.20
2023-05-19T12:20:51.464Z,57.50
2023-05-19T12:23:20.874Z,60.50
2023-05-19T12:25:50.055Z,64.30
2023-05-19T12:28:20.062Z,66.40
2023-05-19T12:30:51.705Z,64.40
2023-05-19T12:33:21.148Z,61.30
2023-05-19T12:35:53.678Z,61.40
2023-05-19T12:38:23.007Z,58.80
2023-05-19T12:40:51.978Z,57.20
2023-05-19T12:43:25.853Z,60.40
2023-05-19T12:45:54.396Z,64.50
2023-05-19T12:48:25.573Z,66.40
2023-05-19T12:54:48.026Z,65.50
2023-05-19T12:57:19.855Z,67.80
2023-05-19T12:59:48.789Z,65.30
2023-05-19T13:02:19.146Z,61.10
2023-05-19T13:04:47.743Z,59.10
2023-05-19T13:07:17.078Z,57.10
2023-05-19T13:09:47.271Z,60.80
2023-05-19T13:12:17.003Z,64.50
2023-05-19T13:14:48.586Z,66.40
2023-05-19T13:17:17.083Z,68.40
2023-05-19T13:19:51.150Z,66.90
2023-05-19T13:22:20.988Z,61.00
2023-05-19T13:41:32.525Z,60.60
2023-05-19T13:44:02.459Z,64.20
2023-05-19T13:46:44.017Z,62.40
2023-05-19T13:49:13.881Z,58.70
2023-05-19T13:51:45.057Z,56.70
2023-05-19T13:54:14.855Z,55.70
2023-05-19T13:56:43.382Z,54.70
2023-05-19T13:59:11.885Z,59.00
2023-05-19T14:01:40.281Z,62.70
2023-05-19T14:04:08.661Z,64.80
2023-05-19T14:06:37.397Z,66.70
2023-05-19T14:09:06.354Z,63.70
2023-05-19T14:11:34.863Z,59.80
2023-05-19T14:14:03.277Z,57.80
2023-05-19T14:16:31.859Z,56.40
2023-05-19T14:19:09.340Z,55.40
2023-05-19T14:21:38.932Z,54.40
2023-05-19T14:24:08.191Z,60.80
2023-05-19T14:26:36.833Z,63.90
2023-05-19T14:29:08.085Z,65.90
2023-05-19T14:31:38.750Z,62.50
2023-05-19T14:34:09.958Z,58.10
2023-05-19T14:36:38.607Z,56.70
2023-05-19T14:39:06.946Z,57.50
2023-05-19T14:41:39.141Z,61.80
2023-05-19T14:44:07.765Z,64.50
2023-05-19T14:46:37.035Z,66.80
2023-05-19T14:49:08.252Z,68.00
2023-05-19T14:51:48.498Z,63.30
2023-05-19T14:54:19.992Z,58.20
2023-05-19T14:56:51.178Z,55.40
2023-05-19T14:59:19.662Z,61.20
2023-05-19T15:01:50.978Z,63.90
2023-05-19T15:04:20.908Z,65.90
2023-05-19T15:06:58.244Z,67.50
2023-05-19T15:09:39.573Z,66.90
2023-05-19T15:14:51.257Z,57.50
2023-05-19T15:17:20.664Z,56.60
2023-05-19T15:19:57.739Z,62.00
2023-05-19T15:22:31.242Z,64.80
2023-05-19T15:25:00.191Z,66.90
2023-05-19T15:27:30.285Z,66.10
2023-05-19T15:29:58.718Z,60.50
2023-05-19T15:32:28.917Z,57.70
2023-05-19T15:34:58.538Z,56.20
2023-05-19T15:40:11.851Z,62.20
2023-05-19T15:43:05.229Z,64.50
2023-05-19T15:45:34.265Z,66.80
2023-05-19T15:48:02.773Z,65.20
2023-05-19T15:50:31.173Z,60.10
2023-05-19T15:53:01.596Z,57.40
2023-05-19T15:55:37.364Z,55.90
2023-05-19T15:58:06.444Z,60.20
2023-05-19T16:00:38.478Z,63.90
2023-05-19T16:03:07.133Z,66.10
2023-05-19T16:05:35.938Z,67.30
2023-05-19T16:08:05.508Z,60.80
2023-05-19T16:10:37.502Z,57.90
2023-05-19T16:13:07.852Z,56.10
2023-05-19T16:15:37.704Z,55.60
2023-05-19T16:18:06.199Z,62.10
2023-05-19T16:20:36.722Z,65.10
2023-05-19T16:23:12.037Z,67.00
2023-05-19T16:25:42.278Z,61.20
2023-05-19T16:28:19.303Z,58.30
2023-05-19T16:30:48.490Z,56.70
2023-05-19T16:33:21.673Z,55.80
2023-05-19T16:35:54.730Z,54.50
2023-05-19T16:38:26.188Z,53.40
2023-05-19T16:40:55.185Z,53.10
2023-05-19T16:43:24.663Z,52.10
2023-05-19T16:45:58.305Z,51.50
2023-05-19T16:48:38.815Z,50.80
2023-05-19T16:51:25.213Z,50.20
2023-05-19T16:53:59.907Z,49.80
2023-05-19T16:56:29.784Z,49.40
2023-05-19T16:58:58.755Z,53.60
2023-05-19T17:01:30.054Z,57.90
2023-05-19T17:03:59.417Z,60.20
2023-05-19T17:06:27.732Z,62.00
2023-05-19T17:08:56.016Z,56.30
2023-05-19T17:11:24.327Z,53.70
2023-05-19T17:13:52.667Z,52.50
2023-05-19T17:16:31.951Z,54.60
2023-05-19T17:19:00.753Z,59.70
2023-05-19T17:21:31.220Z,62.80
2023-05-19T17:24:00.631Z,64.20
2023-05-19T17:26:29.194Z,59.60
2023-05-19T17:29:20.538Z,56.40
2023-05-19T17:31:48.930Z,54.20
2023-05-19T17:34:17.333Z,53.40
2023-05-19T17:36:49.203Z,52.10
2023-05-19T17:39:17.510Z,51.40
2023-05-19T17:41:47.442Z,50.60
2023-05-19T17:44:19.077Z,50.10
2023-05-19T17:46:48.670Z,49.20
2023-05-19T17:49:17.472Z,48.90
2023-05-19T17:51:55.848Z,48.20
2023-05-19T17:57:20.642Z,48.10
2023-05-19T17:59:52.797Z,47.30
2023-05-19T18:02:25.383Z,46.40
2023-05-19T18:04:54.292Z,48.80
2023-05-19T18:07:25.514Z,54.40
2023-05-19T18:09:56.713Z,57.50
2023-05-19T18:14:01.529Z,58.80
2023-05-19T18:16:29.954Z,60.70
2023-05-19T18:18:59.497Z,57.70
2023-05-19T18:21:27.890Z,54.10
2023-05-19T18:24:03.711Z,52.60
2023-05-19T18:26:32.695Z,51.60
2023-05-19T18:29:02.285Z,50.60
2023-05-19T18:31:36.763Z,56.80
2023-05-19T18:34:05.373Z,60.30
2023-05-19T18:36:33.626Z,62.60
2023-05-19T18:39:04.712Z,61.80
2023-05-19T18:41:34.324Z,56.30
2023-05-19T18:44:02.854Z,54.10
2023-05-19T18:46:53.287Z,53.00
2023-05-19T18:49:26.631Z,51.90
2023-05-19T18:51:57.070Z,50.90
2023-05-19T18:54:30.697Z,49.80
2023-05-19T18:57:02.634Z,52.30
2023-05-19T18:59:41.961Z,57.10
2023-05-19T19:02:15.260Z,60.10
2023-05-19T19:04:44.023Z,61.70
2023-05-19T19:07:12.015Z,61.90
2023-05-19T19:09:40.392Z,56.60
2023-05-19T19:12:08.884Z,54.50
2023-05-19T19:14:37.513Z,53.30
2023-05-19T19:17:14.860Z,52.10
2023-05-19T19:19:43.533Z,51.30
2023-05-19T19:22:12.257Z,50.20
2023-05-19T19:24:43.039Z,51.20
2023-05-19T19:27:11.783Z,56.70
2023-05-19T19:29:40.542Z,59.60
2023-05-19T19:32:13.439Z,62.40
2023-05-19T19:34:42.303Z,65.10
2023-05-19T19:37:10.939Z,61.70
2023-05-19T19:39:48.187Z,58.10
2023-05-19T19:42:18.268Z,55.50
2023-05-19T19:44:56.290Z,57.40
2023-05-19T19:47:25.184Z,61.10
2023-05-19T19:54:11.172Z,63.10
2023-05-19T19:56:41.192Z,63.90
2023-05-19T19:59:19.283Z,61.40
2023-05-19T20:01:55.756Z,57.50
2023-05-19T20:04:33.036Z,54.80
2023-05-19T20:07:10.153Z,59.80
2023-05-19T20:09:39.065Z,62.80
2023-05-19T20:12:09.929Z,65.20
2023-05-19T20:14:40.319Z,66.80
2023-05-19T20:17:11.474Z,68.70
2023-05-19T20:19:45.709Z,61.40
2023-05-19T20:22:16.591Z,58.20
2023-05-19T20:24:45.415Z,58.10
2023-05-19T20:27:18.821Z,62.70
2023-05-19T20:29:49.891Z,65.20
2023-05-19T20:32:24.405Z,67.30
2023-05-19T20:34:53.199Z,68.60
2023-05-19T20:37:21.342Z,66.50
2023-05-19T20:39:53.864Z,60.90
2023-05-19T20:42:22.345Z,57.80
2023-05-19T20:44:51.023Z,61.60
2023-05-19T20:47:22.565Z,64.60
2023-05-19T20:49:51.163Z,66.60
2023-05-19T20:52:19.874Z,68.20
2023-05-19T20:54:52.125Z,69.70
2023-05-19T20:57:21.140Z,63.50
2023-05-19T20:59:55.436Z,59.60
2023-05-19T21:02:33.561Z,57.10
2023-05-19T21:05:02.080Z,62.80
2023-05-19T21:07:32.409Z,65.30
2023-05-19T21:10:07.612Z,67.30
2023-05-19T21:12:36.366Z,69.10
2023-05-19T21:15:06.349Z,65.70
2023-05-19T21:17:35.109Z,61.00
2023-05-19T21:20:04.843Z,58.10
2023-05-19T21:22:35.168Z,60.00
2023-05-19T21:25:04.202Z,63.60
2023-05-19T21:27:36.611Z,66.00
2023-05-19T21:30:08.729Z,68.10
2023-05-19T21:32:37.209Z,70.10
2023-05-19T21:35:06.248Z,62.90
2023-05-19T21:37:50.047Z,59.20
2023-05-19T21:40:19.780Z,56.70
2023-05-19T21:42:51.686Z,62.40
2023-05-19T21:45:23.751Z,65.20
2023-05-19T21:47:56.168Z,67.00
2023-05-19T21:50:26.996Z,69.10
2023-05-19T21:52:58.813Z,64.80
2023-05-19T21:55:29.009Z,59.20
2023-05-19T21:58:00.307Z,57.20
2023-05-19T22:00:40.110Z,62.30
2023-05-19T22:03:14.964Z,64.60
2023-05-19T22:05:54.563Z,66.20
2023-05-19T22:08:25.266Z,67.20
2023-05-19T22:10:58.267Z,64.10
2023-05-19T22:13:30.383Z,59.30
2023-05-19T22:16:00.900Z,56.70
2023-05-19T22:18:29.404Z,55.40
2023-05-19T22:20:59.579Z,61.90
2023-05-19T22:23:28.229Z,64.50
2023-05-19T22:25:57.621Z,66.20
2023-05-19T22:28:30.916Z,68.00
2023-05-19T22:31:01.453Z,62.70
2023-05-19T22:33:30.118Z,58.90
2023-05-19T22:36:05.097Z,56.50
2023-05-19T22:38:35.898Z,55.60
2023-05-19T22:41:04.604Z,62.10
2023-05-19T22:43:33.290Z,64.40
2023-05-19T22:46:02.122Z,66.50
2023-05-19T22:48:31.064Z,67.50
2023-05-19T22:51:01.162Z,61.70
2023-05-19T22:53:38.770Z,58.70
2023-05-19T22:56:07.782Z,56.30
2023-05-19T22:58:36.447Z,59.00
2023-05-19T23:01:05.328Z,63.40
2023-05-19T23:03:36.777Z,65.40
2023-05-19T23:06:07.178Z,67.00
2023-05-19T23:08:37.229Z,61.70
2023-05-19T23:11:10.717Z,58.20
2023-05-19T23:13:54.878Z,56.30
2023-05-19T23:16:24.467Z,59.70
2023-05-19T23:18:53.257Z,63.60
2023-05-19T23:21:21.681Z,65.60
2023-05-19T23:23:51.113Z,67.30
2023-05-19T23:26:19.572Z,63.40
2023-05-19T23:28:48.110Z,59.10
2023-05-19T23:31:16.605Z,57.10
2023-05-19T23:33:45.141Z,55.60
2023-05-19T23:36:15.033Z,59.90
2023-05-19T23:38:44.594Z,63.40
2023-05-19T23:41:12.816Z,65.40
2023-05-19T23:43:41.125Z,66.60
2023-05-19T23:46:09.830Z,62.90
2023-05-19T23:48:37.924Z,58.70
2023-05-19T23:51:06.724Z,56.90
2023-05-19T23:53:36.379Z,55.50
2023-05-19T23:56:06.032Z,61.20
2023-05-19T23:58:34.399Z,64.40
